Catàleg de serveis del Meteocat

Dades de l'estació automàtica Vinebre

?
?
Resum diari 22:30 TU
Dades diàries de l'estació meteorològica
Temperatura mitjana 10.4 °C
Temperatura màxima 15.7 °C 12:16 TU
Temperatura mínima 6.7 °C 21:23 TU
Humitat relativa mitjana 91%
Precipitació acumulada 3.9 mm
Ratxa màxima del vent (10 m) 39.6 km/h - 255º 16:13 TU
Pressió atmosfèrica mitjana 1001.2 hPa
Irradiació solar global 4.9 MJ/m2

El tram horari està expressat en Temps Universal (TU). Cal sumar una hora en horari d'hivern i dues en horari d'estiu per passar a l'hora oficial.

Vinebre

Metadades estació meteorol´gica
Municipi Vinebre
Comarca Ribera d'Ebre
Altitud 53 m
Data alta 22.01.1998
Estat actual Operativa
Dades de període
Període
TU
TM
°C
TX
°C
TN
°C
HRM
%
PPT
mm
VVM (10 m)
km/h
DVM (10 m)
graus
VVX (10 m)
km/h
PM
hPa
RS
W/m2
00:00 - 00:30 10.1 10.3 10.0 94 0.0 4.7 287 10.1 1000.5 0
00:30 - 01:00 10.0 10.0 9.9 97 0.0 3.6 289 12.2 1000.5 0
01:00 - 01:30 9.7 9.9 9.6 99 0.0 2.9 277 7.2 1000.5 0
01:30 - 02:00 9.4 9.6 9.1 99 0.0 1.4 343 6.8 1000.4 0
02:00 - 02:30 8.9 9.1 8.7 100 0.0 0.7 32 2.5 1000.5 0
02:30 - 03:00 8.5 8.7 8.2 100 0.0 1.4 34 3.2 1000.4 0
03:00 - 03:30 8.4 8.6 8.3 100 0.0 0.7 198 3.6 1000.3 0
03:30 - 04:00 8.5 8.7 8.4 100 0.0 1.8 5 4.0 1000.5 0
04:00 - 04:30 8.9 9.0 8.7 100 0.0 1.4 103 2.9 1000.6 0
04:30 - 05:00 9.1 9.2 9.0 100 0.0 1.4 258 4.3 1000.5 0
05:00 - 05:30 9.1 9.2 9.1 100 0.0 2.2 25 5.0 1000.6 0
05:30 - 06:00 9.2 9.3 9.2 100 0.0 1.8 274 5.4 1000.4 0
06:00 - 06:30 9.1 9.2 9.1 100 0.0 2.9 312 5.8 1000.5 0
06:30 - 07:00 9.2 9.3 9.1 100 0.0 1.1 301 3.6 1000.6 2
07:00 - 07:30 9.3 9.4 9.2 100 0.0 0.7 347 2.5 1000.8 19
07:30 - 08:00 9.4 9.5 9.4 100 0.0 1.8 157 4.7 1001.1 30
08:00 - 08:30 9.8 10.2 9.5 100 0.0 1.1 262 4.0 1001.0 90
08:30 - 09:00 10.3 10.5 10.2 100 0.0 1.4 232 4.3 1001.1 99
09:00 - 09:30 10.7 10.9 10.6 91 0.0 0.0 292 1.4 1001.1 72
09:30 - 10:00 11.0 11.2 10.9 86 0.0 0.4 171 2.2 1001.3 81
10:00 - 10:30 11.4 11.8 11.1 84 0.0 1.4 198 5.0 1001.3 153
10:30 - 11:00 12.3 13.8 11.7 80 0.0 2.2 325 6.1 1001.1 267
11:00 - 11:30 13.2 13.5 12.9 76 0.0 2.2 100 5.4 1000.8 208
11:30 - 12:00 13.4 14.6 12.9 76 0.0 1.8 202 6.8 1000.5 316
12:00 - 12:30 15.0 15.7 14.5 65 0.0 2.9 295 6.5 1000.0 488
12:30 - 13:00 15.4 15.7 15.1 64 0.0 5.0 289 10.1 999.6 371
13:00 - 13:30 15.3 15.4 15.2 64 0.0 2.5 162 9.0 999.5 128
13:30 - 14:00 15.5 15.6 15.5 64 0.0 6.5 136 11.5 999.2 146
14:00 - 14:30 15.4 15.5 15.2 66 0.0 8.3 144 15.1 999.2 92
14:30 - 15:00 15.1 15.2 15.0 68 0.0 10.4 134 16.2 999.1 78
15:00 - 15:30 15.4 15.7 15.0 67 0.0 7.6 140 16.6 999.1 100
15:30 - 16:00 15.1 15.4 14.7 70 0.0 5.0 122 15.5 999.2 15
16:00 - 16:30 13.0 14.6 10.3 79 3.6 9.7 310 39.6 1000.3 3
16:30 - 17:00 10.0 10.3 9.8 99 0.3 7.2 29 17.6 1001.3 0
17:00 - 17:30 9.7 9.7 9.6 99 0.0 6.1 36 9.4 1001.5 0
17:30 - 18:00 9.5 9.6 9.4 99 0.0 4.7 50 11.9 1001.8 0
18:00 - 18:30 9.3 9.5 9.2 100 0.0 1.8 24 3.2 1002.1 0
18:30 - 19:00 9.0 9.2 8.9 100 0.0 4.3 33 7.9 1002.5 0
19:00 - 19:30 8.8 8.9 8.7 100 0.0 4.7 18 9.0 1002.7 0
19:30 - 20:00 8.5 8.7 8.3 100 0.0 2.2 326 7.2 1003.1 0
20:00 - 20:30 8.0 8.3 7.8 100 0.0 2.2 317 5.4 1003.5 0
20:30 - 21:00 7.5 7.8 7.2 100 0.0 1.4 211 4.0 1003.8 0
21:00 - 21:30 7.0 7.8 6.7 100 0.0 2.9 26 5.4 1004.0 0
21:30 - 22:00 7.0 7.3 6.8 100 0.0 2.2 21 6.1 1004.5 0
22:00 - 22:30 7.5 7.6 7.3 100 0.0 2.9 32 7.2 1004.9 0
22:30 - 23:00 7.4 7.6 7.3 100 0.0 2.2 48 5.4 1005.3 0
23:00 - 23:30 7.3 7.4 7.2 100 0.0 3.6 24 5.4 1005.6 0

Les dades en taronja només han passat un control de qualitat automàtic. Resta pendent la seva validació definitiva.